Time;durP1;ratioP1;P1;durP2;ratioP2;P2;SDS_P1;SDS_P2;PMS_P1;PMS_P2;Temp;Humidity;BMP_temperature;BMP_pressure;BME280_temperature;BME280_humidity;BME280_pressure;Samples;Min_cycle;Max_cycle;Signal;HPM_P1;HPM_P2
2023/06/19 00:01:15;;;;;;;7.93;2.60;;;;;;;23.05;89.05;100832.25;5047062;28;20025;-60
2023/06/19 00:03:40;;;;;;;9.95;2.20;;;;;;;23.07;89.65;100841.03;5048749;28;20029;-61
2023/06/19 00:06:06;;;;;;;6.85;2.22;;;;;;;23.06;90.67;100836.66;5042508;28;20091;-59
2023/06/19 00:08:31;;;;;;;1.85;1.60;;;;;;;22.97;92.15;100844.53;5029300;28;20037;-59
2023/06/19 00:10:56;;;;;;;9.18;1.85;;;;;;;22.91;93.58;100831.63;5047837;28;20080;-61
2023/06/19 00:13:22;;;;;;;5.70;1.67;;;;;;;23.00;93.87;100838.06;5047265;28;20116;-60
2023/06/19 00:15:47;;;;;;;2.67;1.33;;;;;;;22.88;94.94;100829.22;5048262;28;20112;-59
2023/06/19 00:18:13;;;;;;;2.88;1.45;;;;;;;22.94;95.04;100838.59;5046090;28;20412;-59
2023/06/19 00:20:39;;;;;;;1.42;1.33;;;;;;;22.74;96.89;100842.97;5047117;28;20025;-60
2023/06/19 00:23:05;;;;;;;1.77;1.50;;;;;;;22.83;96.52;100852.94;5038187;28;20806;-60
2023/06/19 00:25:30;;;;;;;4.85;2.10;;;;;;;22.76;97.74;100846.41;5042337;28;20100;-60
2023/06/19 00:27:55;;;;;;;1.45;1.35;;;;;;;22.62;99.08;100837.69;5041448;28;20044;-61
2023/06/19 00:30:21;;;;;;;2.42;1.40;;;;;;;22.45;100.00;100848.00;5046408;28;20036;-60
2023/06/19 00:32:46;;;;;;;6.28;1.35;;;;;;;22.42;100.00;100845.56;5046844;28;20029;-59
2023/06/19 00:35:15;;;;;;;2.65;1.40;;;;;;;22.36;100.00;100846.09;5043885;28;20055;-60
2023/06/19 00:37:45;;;;;;;2.97;1.30;;;;;;;22.27;100.00;100852.25;5043290;28;20489;-60
2023/06/19 00:40:24;;;;;;;2.20;1.38;;;;;;;22.20;100.00;100858.13;5025813;28;21024;-59
2023/06/19 00:42:50;;;;;;;3.70;1.60;;;;;;;22.15;100.00;100857.66;5029357;28;20389;-61
2023/06/19 00:45:15;;;;;;;1.80;1.70;;;;;;;22.04;100.00;100855.00;5046508;28;20033;-57
2023/06/19 00:47:40;;;;;;;3.75;1.80;;;;;;;21.92;100.00;100860.44;5046467;28;20040;-59
2023/06/19 00:50:06;;;;;;;4.15;1.90;;;;;;;22.00;100.00;100861.63;5046464;28;20037;-60
2023/06/19 00:52:31;;;;;;;2.08;1.67;;;;;;;22.05;100.00;100862.06;5046637;28;20032;-60
2023/06/19 00:54:57;;;;;;;1.80;1.70;;;;;;;22.09;100.00;100864.38;5029119;28;20036;-60
2023/06/19 00:57:22;;;;;;;2.83;1.90;;;;;;;22.17;100.00;100853.00;5041515;28;20037;-61
2023/06/19 00:59:48;;;;;;;3.35;1.95;;;;;;;22.14;100.00;100855.94;5029241;28;20028;-60
2023/06/19 01:02:14;;;;;;;2.63;2.10;;;;;;;22.05;100.00;100860.25;5028739;28;20515;-60
2023/06/19 01:04:41;;;;;;;3.70;2.08;;;;;;;22.09;100.00;100853.66;5047484;28;20052;-59
2023/06/19 01:07:09;;;;;;;3.10;2.17;;;;;;;22.08;100.00;100859.13;5048289;28;20536;-59
2023/06/19 01:09:44;;;;;;;3.70;2.40;;;;;;;22.02;100.00;100859.63;5031268;28;20024;-59
2023/06/19 01:12:14;;;;;;;5.65;2.55;;;;;;;21.96;100.00;100859.19;5030272;28;20029;-59
2023/06/19 01:14:48;;;;;;;3.28;2.80;;;;;;;22.06;100.00;100861.09;5049133;28;20060;-59
2023/06/19 01:17:13;;;;;;;3.80;2.50;;;;;;;21.92;100.00;100868.47;5030513;28;20035;-59
2023/06/19 01:19:38;;;;;;;4.93;2.53;;;;;;;21.84;100.00;100870.91;5030718;28;20112;-60
2023/06/19 01:22:04;;;;;;;2.88;2.58;;;;;;;21.85;100.00;100869.94;5047581;28;20037;-58
2023/06/19 01:24:30;;;;;;;2.92;2.72;;;;;;;21.86;100.00;100871.66;5048732;28;20668;-60
2023/06/19 01:26:55;;;;;;;9.75;3.53;;;;;;;21.75;100.00;100868.94;5127131;22;20048;-60
2023/06/19 01:29:21;;;;;;;4.10;3.50;;;;;;;21.66;100.00;100866.03;5035726;28;20025;-61
2023/06/19 01:31:54;;;;;;;5.90;4.18;;;;;;;21.67;100.00;100866.91;5047379;28;20021;-59
2023/06/19 01:34:20;;;;;;;6.70;4.68;;;;;;;21.65;100.00;100866.16;5044713;28;20029;-59
2023/06/19 01:36:48;;;;;;;9.10;4.55;;;;;;;21.68;100.00;100868.59;5024746;28;20029;-58
2023/06/19 01:39:15;;;;;;;5.30;4.80;;;;;;;21.49;100.00;100863.88;5017510;28;20072;-60
2023/06/19 01:41:42;;;;;;;7.55;4.88;;;;;;;21.57;100.00;100867.66;5028748;28;20045;-59
2023/06/19 01:44:08;;;;;;;7.47;5.07;;;;;;;21.59;100.00;100863.00;5047230;28;20017;-59
2023/06/19 01:46:33;;;;;;;5.88;4.63;;;;;;;21.71;100.00;100863.00;5047585;28;20029;-59
2023/06/19 01:48:59;;;;;;;4.75;4.25;;;;;;;21.79;100.00;100857.03;5047711;28;20032;-59
2023/06/19 01:51:24;;;;;;;8.50;5.47;;;;;;;21.74;100.00;100857.38;5049222;28;20021;-60
2023/06/19 01:53:49;;;;;;;6.32;5.78;;;;;;;21.71;100.00;100853.09;5046675;28;20037;-60
2023/06/19 01:56:15;;;;;;;6.10;5.40;;;;;;;21.73;100.00;100849.47;5040639;28;20025;-61
2023/06/19 01:58:40;;;;;;;7.57;6.20;;;;;;;21.54;100.00;100840.22;5046584;28;20123;-59
2023/06/19 02:01:06;;;;;;;9.77;5.65;;;;;;;21.63;100.00;100850.19;5044890;28;20550;-59
2023/06/19 02:03:31;;;;;;;6.15;5.55;;;;;;;21.67;100.00;100856.19;5039212;28;20343;-59
2023/06/19 02:05:56;;;;;;;6.55;5.15;;;;;;;21.60;100.00;100850.44;5041122;28;20461;-60
2023/06/19 02:08:21;;;;;;;7.45;5.32;;;;;;;21.61;100.00;100854.81;5044830;28;20418;-60
2023/06/19 02:10:47;;;;;;;5.88;5.35;;;;;;;21.59;100.00;100856.78;5046286;28;20048;-59
2023/06/19 02:13:13;;;;;;;6.03;5.43;;;;;;;21.68;100.00;100856.06;5045195;28;20033;-61
2023/06/19 02:15:38;;;;;;;9.90;5.85;;;;;;;21.67;100.00;100859.69;5044736;28;20074;-58
2023/06/19 02:18:04;;;;;;;6.13;5.30;;;;;;;21.71;100.00;100861.16;5040375;28;20114;-59
2023/06/19 02:20:30;;;;;;;9.55;5.68;;;;;;;21.79;100.00;100859.72;5044800;28;20025;-59
2023/06/19 02:22:55;;;;;;;6.95;6.20;;;;;;;21.62;100.00;100853.88;5046289;28;20033;-59
2023/06/19 02:25:20;;;;;;;8.23;6.80;;;;;;;21.59;100.00;100862.16;5047202;28;20529;-60
2023/06/19 02:27:46;;;;;;;9.55;6.70;;;;;;;21.63;100.00;100860.06;5047553;28;20044;-60
2023/06/19 02:30:11;;;;;;;11.35;6.90;;;;;;;21.57;100.00;100872.13;5048170;28;20031;-60
2023/06/19 02:32:37;;;;;;;7.80;7.05;;;;;;;21.64;100.00;100867.97;5047304;28;20045;-59
2023/06/19 02:35:04;;;;;;;10.13;8.43;;;;;;;21.57;100.00;100867.66;5048114;28;20033;-61
2023/06/19 02:37:29;;;;;;;15.80;10.93;;;;;;;21.44;100.00;100865.09;5047617;28;20036;-59
2023/06/19 02:39:55;;;;;;;17.52;11.40;;;;;;;21.55;100.00;100869.59;5048424;28;20025;-60
2023/06/19 02:42:20;;;;;;;20.27;13.85;;;;;;;21.49;100.00;100870.06;5048166;28;20054;-61
2023/06/19 02:44:45;;;;;;;22.52;15.27;;;;;;;21.42;100.00;100880.44;5048670;28;20033;-60
2023/06/19 02:47:11;;;;;;;24.50;15.63;;;;;;;21.45;100.00;100880.19;5047968;28;20036;-59
2023/06/19 02:49:36;;;;;;;21.77;15.07;;;;;;;21.43;100.00;100876.78;5047423;28;20017;-59
2023/06/19 02:52:01;;;;;;;20.30;14.93;;;;;;;21.41;100.00;100883.25;5047920;28;20440;-59
2023/06/19 02:54:27;;;;;;;24.98;16.17;;;;;;;21.25;100.00;100897.84;5048427;28;20029;-59
2023/06/19 02:56:52;;;;;;;22.95;15.93;;;;;;;21.07;100.00;100892.97;5051293;28;20017;-60
2023/06/19 02:59:17;;;;;;;22.17;15.57;;;;;;;21.23;100.00;100899.81;5052550;28;20369;-60
2023/06/19 03:01:43;;;;;;;20.08;15.60;;;;;;;21.30;100.00;100897.50;5051463;28;20104;-60
2023/06/19 03:04:08;;;;;;;20.35;16.23;;;;;;;21.27;100.00;100919.16;5051501;28;20553;-59
2023/06/19 03:06:39;;;;;;;22.38;15.18;;;;;;;21.35;100.00;100922.09;5052170;28;20468;-58
2023/06/19 03:09:13;;;;;;;20.77;14.50;;;;;;;21.08;100.00;100917.94;5052007;28;20106;-58
2023/06/19 03:11:39;;;;;;;23.85;16.27;;;;;;;21.03;100.00;100922.78;5052024;28;20021;-59
2023/06/19 03:14:07;;;;;;;20.60;15.35;;;;;;;20.87;100.00;100934.66;5050996;28;20029;-59
2023/06/19 03:16:32;;;;;;;18.38;14.52;;;;;;;20.78;100.00;100933.53;5051700;28;20017;-59
2023/06/19 03:18:58;;;;;;;20.17;14.25;;;;;;;20.62;100.00;100935.66;5050706;28;20503;-59
2023/06/19 03:21:23;;;;;;;18.88;14.55;;;;;;;20.67;100.00;100929.00;5051856;28;20036;-58
2023/06/19 03:23:48;;;;;;;19.33;13.82;;;;;;;20.64;100.00;100939.06;5070465;28;20023;-59
2023/06/19 03:26:14;;;;;;;21.70;15.90;;;;;;;20.54;100.00;100938.91;5071412;28;20540;-59
2023/06/19 03:28:39;;;;;;;25.35;17.67;;;;;;;20.58;100.00;100951.09;5071899;28;20527;-60
2023/06/19 03:31:04;;;;;;;27.45;19.02;;;;;;;20.54;100.00;100946.94;5071718;28;20024;-59
2023/06/19 03:33:30;;;;;;;24.70;18.98;;;;;;;20.61;100.00;100950.88;5055252;28;20074;-58
2023/06/19 03:35:55;;;;;;;30.75;21.77;;;;;;;20.51;100.00;100971.25;5051089;28;20154;-60
2023/06/19 03:38:21;;;;;;;31.67;22.17;;;;;;;20.51;100.00;100952.53;5032559;28;20024;-61
2023/06/19 03:40:46;;;;;;;31.42;21.45;;;;;;;20.56;100.00;100964.59;5051501;28;20112;-61
2023/06/19 03:43:12;;;;;;;28.63;19.80;;;;;;;20.48;100.00;100958.97;5051413;28;20024;-59
2023/06/19 03:45:37;;;;;;;28.45;19.50;;;;;;;20.40;100.00;100972.03;5051148;28;20391;-60
2023/06/19 03:48:03;;;;;;;20.85;16.13;;;;;;;20.46;100.00;100982.31;5050525;28;20025;-59
2023/06/19 03:50:28;;;;;;;17.60;13.55;;;;;;;20.41;100.00;100993.34;5051300;28;20372;-60
2023/06/19 03:52:53;;;;;;;16.00;12.75;;;;;;;20.41;100.00;100987.16;5050006;28;20057;-61
2023/06/19 03:55:19;;;;;;;17.13;12.10;;;;;;;20.55;100.00;101002.19;5051151;28;20095;-60
2023/06/19 03:57:44;;;;;;;15.73;11.15;;;;;;;20.61;100.00;100999.03;5050307;28;20029;-60
2023/06/19 04:00:12;;;;;;;13.00;10.68;;;;;;;20.64;100.00;100998.81;5050701;28;20496;-59
2023/06/19 04:02:41;;;;;;;12.10;9.45;;;;;;;20.52;100.00;101005.94;5049717;28;20036;-60
2023/06/19 04:05:06;;;;;;;10.20;8.15;;;;;;;20.60;100.00;101004.50;5032314;28;20540;-58
2023/06/19 04:07:32;;;;;;;13.18;7.10;;;;;;;20.60;100.00;101005.38;5049732;28;20105;-61
2023/06/19 04:09:57;;;;;;;7.70;5.75;;;;;;;20.54;100.00;101021.88;5050255;28;20052;-57
2023/06/19 04:12:23;;;;;;;6.50;5.28;;;;;;;20.54;100.00;101014.72;5049765;28;20535;-61
2023/06/19 04:14:48;;;;;;;5.38;4.82;;;;;;;20.53;100.00;101014.84;5050948;28;20070;-61
2023/06/19 04:17:14;;;;;;;6.05;4.97;;;;;;;20.60;100.00;101020.56;5044574;28;20041;-62
2023/06/19 04:19:39;;;;;;;5.18;4.40;;;;;;;20.66;100.00;101034.38;5043926;28;20032;-58
2023/06/19 04:22:05;;;;;;;5.10;4.40;;;;;;;20.52;100.00;101037.19;5038919;28;20017;-60
2023/06/19 04:24:30;;;;;;;6.30;4.30;;;;;;;20.56;100.00;101036.03;5043660;28;20041;-61
2023/06/19 04:26:55;;;;;;;4.97;4.47;;;;;;;20.59;100.00;101038.47;5047304;28;20041;-60
2023/06/19 04:29:21;;;;;;;4.50;4.10;;;;;;;20.45;100.00;101042.16;5036869;28;20078;-60
2023/06/19 04:31:49;;;;;;;4.28;3.78;;;;;;;20.48;100.00;101047.28;5032152;28;20021;-60
2023/06/19 04:34:21;;;;;;;6.20;3.57;;;;;;;20.48;100.00;101049.09;5030944;28;20052;-59
2023/06/19 04:36:47;;;;;;;3.35;2.63;;;;;;;20.45;100.00;101063.56;5050176;28;20275;-62
2023/06/19 04:39:12;;;;;;;4.22;3.05;;;;;;;20.45;100.00;101064.44;5049517;28;20123;-58
2023/06/19 04:41:38;;;;;;;4.53;3.95;;;;;;;20.50;100.00;101056.03;5049074;28;20048;-61
2023/06/19 04:44:04;;;;;;;6.10;4.60;;;;;;;20.44;100.00;101065.38;5049270;28;20449;-60
2023/06/19 04:46:30;;;;;;;7.88;5.28;;;;;;;20.58;100.00;101075.09;5049841;28;20021;-61
2023/06/19 04:48:55;;;;;;;10.02;5.70;;;;;;;20.46;100.00;101067.94;5047722;28;20112;-60
2023/06/19 04:51:21;;;;;;;8.95;6.25;;;;;;;20.51;100.00;101091.69;5049930;28;20422;-55
2023/06/19 04:53:47;;;;;;;8.02;6.90;;;;;;;20.54;100.00;101081.63;5047827;28;20350;-60
2023/06/19 04:56:12;;;;;;;12.73;7.03;;;;;;;20.55;100.00;101082.47;5045449;28;20147;-59
2023/06/19 04:58:46;;;;;;;8.43;6.60;;;;;;;20.65;100.00;101088.03;5048935;28;20116;-61
2023/06/19 05:01:15;;;;;;;8.07;5.97;;;;;;;20.60;100.00;101087.50;5054387;28;20028;-59
2023/06/19 05:03:42;;;;;;;8.90;5.80;;;;;;;20.57;100.00;101093.94;5051581;28;20033;-60
2023/06/19 05:06:08;;;;;;;9.00;5.95;;;;;;;20.56;100.00;101108.28;5041365;28;20104;-59
2023/06/19 05:08:33;;;;;;;8.38;6.20;;;;;;;20.60;100.00;101099.06;5042085;28;20045;-59
2023/06/19 05:10:59;;;;;;;10.55;6.22;;;;;;;20.61;100.00;101103.44;5046435;28;20028;-61
2023/06/19 05:13:24;;;;;;;8.15;5.80;;;;;;;20.68;100.00;101106.53;5046794;28;20492;-61
2023/06/19 05:15:53;;;;;;;12.40;6.07;;;;;;;20.65;100.00;101096.91;5046554;28;20041;-59
2023/06/19 05:18:18;;;;;;;13.30;6.45;;;;;;;20.62;100.00;101107.00;5036762;28;20116;-59
2023/06/19 05:20:44;;;;;;;11.95;7.05;;;;;;;20.58;100.00;101098.31;5027622;28;20483;-62
2023/06/19 05:23:09;;;;;;;11.27;6.85;;;;;;;20.54;100.00;101107.53;5044984;28;20843;-60
2023/06/19 05:25:35;;;;;;;12.38;7.65;;;;;;;20.60;100.00;101111.59;5044786;28;20020;-59
2023/06/19 05:28:00;;;;;;;17.15;8.10;;;;;;;20.44;100.00;101121.56;5026383;28;20102;-59
2023/06/19 05:30:25;;;;;;;14.23;7.90;;;;;;;20.57;100.00;101126.06;5026651;28;20075;-61
2023/06/19 05:32:51;;;;;;;15.52;9.55;;;;;;;20.50;100.00;101135.50;5026802;28;20025;-59
2023/06/19 05:35:16;;;;;;;18.50;11.27;;;;;;;20.39;100.00;101134.44;5032243;28;20112;-59
2023/06/19 05:37:43;;;;;;;14.43;9.80;;;;;;;20.53;100.00;101146.00;5036529;28;20469;-60
2023/06/19 05:40:09;;;;;;;20.60;12.43;;;;;;;20.34;100.00;101149.97;5031643;28;20045;-61
2023/06/19 05:42:35;;;;;;;18.23;12.30;;;;;;;20.25;100.00;101155.94;5030587;28;20082;-55
2023/06/19 05:45:00;;;;;;;22.20;12.85;;;;;;;20.34;100.00;101155.31;5040546;28;20108;-60
2023/06/19 05:47:26;;;;;;;17.98;13.27;;;;;;;20.20;100.00;101158.97;5039522;28;20107;-61
2023/06/19 05:49:51;;;;;;;19.67;12.82;;;;;;;20.45;100.00;101158.09;5035493;28;20017;-62
2023/06/19 05:52:17;;;;;;;17.88;12.13;;;;;;;20.51;100.00;101161.28;5045038;28;20093;-60
2023/06/19 05:54:42;;;;;;;17.02;12.23;;;;;;;20.44;100.00;101175.09;5037064;28;20021;-61
2023/06/19 05:57:07;;;;;;;18.17;11.57;;;;;;;20.26;100.00;101168.38;5035162;28;20043;-61
2023/06/19 05:59:33;;;;;;;14.77;11.38;;;;;;;20.35;100.00;101167.75;5044237;28;20021;-59
2023/06/19 06:01:58;;;;;;;15.65;11.38;;;;;;;20.33;100.00;101183.91;5043255;28;20033;-59
2023/06/19 06:04:23;;;;;;;15.75;11.60;;;;;;;20.05;100.00;101184.97;5042880;28;20104;-61
2023/06/19 06:06:49;;;;;;;15.23;11.88;;;;;;;19.95;100.00;101185.56;5038999;28;20394;-59
2023/06/19 06:09:16;;;;;;;22.58;13.23;;;;;;;19.98;100.00;101191.66;5043407;28;20389;-60
2023/06/19 06:11:41;;;;;;;18.30;12.95;;;;;;;19.82;100.00;101200.72;5035585;28;20086;-61
2023/06/19 06:14:07;;;;;;;19.90;13.40;;;;;;;19.86;100.00;101199.56;5038951;28;20253;-60
2023/06/19 06:16:32;;;;;;;17.58;12.27;;;;;;;19.85;100.00;101200.53;5039215;28;20124;-59
2023/06/19 06:18:58;;;;;;;15.32;11.93;;;;;;;19.88;100.00;101211.00;5039229;28;20029;-61
2023/06/19 06:21:23;;;;;;;16.13;11.30;;;;;;;19.92;100.00;101208.97;5044716;28;20136;-62
2023/06/19 06:23:49;;;;;;;19.88;11.68;;;;;;;19.94;100.00;101218.63;5037370;28;20137;-60
2023/06/19 06:26:14;;;;;;;16.77;11.45;;;;;;;19.98;100.00;101216.56;5040212;28;20060;-59
2023/06/19 06:28:40;;;;;;;19.80;11.35;;;;;;;20.09;100.00;101223.91;5040139;28;20453;-61
2023/06/19 06:31:05;;;;;;;13.45;10.55;;;;;;;20.05;100.00;101225.09;5049685;28;20033;-61
2023/06/19 06:33:30;;;;;;;16.92;10.55;;;;;;;20.27;100.00;101228.94;5050369;28;20086;-61
2023/06/19 06:35:57;;;;;;;17.63;11.25;;;;;;;20.22;100.00;101239.13;5050468;28;20388;-58
2023/06/19 06:38:22;;;;;;;18.50;11.05;;;;;;;20.18;100.00;101235.78;5043533;28;20021;-59
2023/06/19 06:40:48;;;;;;;19.08;11.65;;;;;;;20.31;100.00;101244.69;5041564;28;20051;-59
2023/06/19 06:43:13;;;;;;;18.45;10.57;;;;;;;20.43;100.00;101239.44;5040839;28;20060;-61
2023/06/19 06:45:38;;;;;;;14.35;10.98;;;;;;;20.38;100.00;101245.09;5024485;28;20048;-60
2023/06/19 06:48:07;;;;;;;15.55;11.25;;;;;;;20.51;100.00;101247.81;5052896;28;20056;-60
2023/06/19 06:50:32;;;;;;;13.63;10.25;;;;;;;20.54;100.00;101262.78;5053935;28;20503;-61
2023/06/19 06:52:58;;;;;;;21.05;10.68;;;;;;;20.49;100.00;101259.56;5045543;28;20041;-60
2023/06/19 06:55:23;;;;;;;14.02;9.80;;;;;;;20.52;100.00;101259.34;5034002;28;20028;-61
2023/06/19 06:57:48;;;;;;;18.05;10.23;;;;;;;20.58;100.00;101262.47;5027915;28;20130;-62
2023/06/19 07:00:14;;;;;;;15.95;10.73;;;;;;;20.64;100.00;101273.69;5042997;28;20029;-61
2023/06/19 07:02:40;;;;;;;16.85;10.43;;;;;;;20.66;100.00;101269.09;5041955;28;20037;-60
2023/06/19 07:05:07;;;;;;;15.80;9.77;;;;;;;20.63;100.00;101283.56;5033645;28;20056;-60
2023/06/19 07:07:32;;;;;;;16.55;9.38;;;;;;;20.65;100.00;101278.94;5034386;28;20028;-60
2023/06/19 07:09:58;;;;;;;15.52;8.90;;;;;;;20.73;100.00;101275.72;5015665;28;20029;-60
2023/06/19 07:12:23;;;;;;;17.88;9.50;;;;;;;20.81;100.00;101288.59;5037573;28;20472;-61
2023/06/19 07:14:48;;;;;;;14.98;9.85;;;;;;;20.85;100.00;101298.09;5035134;28;20461;-60
2023/06/19 07:17:14;;;;;;;13.55;8.82;;;;;;;20.99;100.00;101285.59;5051495;28;20090;-60
2023/06/19 07:19:39;;;;;;;14.00;9.60;;;;;;;21.10;100.00;101287.50;5053712;28;20048;-59
2023/06/19 07:22:04;;;;;;;11.77;8.70;;;;;;;21.35;100.00;101294.63;5053526;28;20020;-60
2023/06/19 07:24:30;;;;;;;10.05;8.35;;;;;;;21.43;100.00;101286.88;5045563;28;20108;-60
2023/06/19 07:26:56;;;;;;;12.15;9.25;;;;;;;21.46;100.00;101283.09;5030576;28;20561;-62
2023/06/19 07:29:22;;;;;;;15.73;9.60;;;;;;;21.64;100.00;101288.94;5031403;28;20033;-63
2023/06/19 07:31:47;;;;;;;14.43;9.68;;;;;;;21.85;100.00;101299.06;5031495;28;20036;-60
2023/06/19 07:34:13;;;;;;;15.15;8.93;;;;;;;22.13;100.00;101288.94;5031608;28;20113;-59
2023/06/19 07:36:39;;;;;;;13.13;8.48;;;;;;;22.19;100.00;101291.13;5032356;28;20079;-60
2023/06/19 07:39:04;;;;;;;12.23;8.48;;;;;;;22.50;100.00;101292.44;5031458;28;20490;-61
2023/06/19 07:41:29;;;;;;;11.35;8.07;;;;;;;22.64;100.00;101294.06;5030474;28;20495;-60
2023/06/19 07:43:55;;;;;;;10.77;8.10;;;;;;;22.62;100.00;101296.88;5030243;28;20385;-61
2023/06/19 07:46:20;;;;;;;12.30;8.48;;;;;;;22.64;100.00;101296.75;5030522;28;20481;-60
2023/06/19 07:48:46;;;;;;;13.85;8.35;;;;;;;22.69;100.00;101303.47;5030017;28;20025;-59
2023/06/19 07:51:11;;;;;;;16.80;8.63;;;;;;;22.87;100.00;101294.94;5030032;28;20037;-60
2023/06/19 07:53:37;;;;;;;13.15;9.07;;;;;;;22.85;100.00;101289.69;5046508;28;20102;-62
2023/06/19 07:56:03;;;;;;;17.13;8.18;;;;;;;22.95;100.00;101297.88;5049806;28;20116;-61
2023/06/19 07:58:29;;;;;;;15.85;7.88;;;;;;;23.17;100.00;101298.84;5050234;28;20033;-60
2023/06/19 08:00:54;;;;;;;11.48;7.85;;;;;;;23.30;98.98;101300.53;5049678;28;20068;-62
2023/06/19 08:03:21;;;;;;;10.80;8.05;;;;;;;23.03;99.00;101307.16;5050149;28;20603;-61
2023/06/19 08:05:46;;;;;;;10.57;8.38;;;;;;;22.98;99.36;101302.16;5050174;28;20025;-60
2023/06/19 08:08:13;;;;;;;13.38;8.20;;;;;;;23.00;99.79;101307.41;5049187;28;20028;-60
2023/06/19 08:10:38;;;;;;;16.60;9.38;;;;;;;22.97;100.00;101312.03;5050726;28;20085;-61
2023/06/19 08:13:03;;;;;;;12.20;8.50;;;;;;;22.94;99.87;101309.59;5049304;28;20127;-60
2023/06/19 08:15:29;;;;;;;12.38;8.35;;;;;;;22.77;100.00;101310.06;5050558;28;20141;-61
2023/06/19 08:17:54;;;;;;;18.83;9.90;;;;;;;22.64;100.00;101308.38;5048114;28;20033;-60
2023/06/19 08:20:20;;;;;;;13.32;8.32;;;;;;;22.94;100.00;101317.66;5051084;28;20066;-60
2023/06/19 08:22:45;;;;;;;15.00;9.27;;;;;;;22.67;100.00;101310.78;5049385;28;20025;-59
2023/06/19 08:25:11;;;;;;;12.18;8.77;;;;;;;22.88;100.00;101322.66;5049918;28;20485;-60
2023/06/19 08:27:37;;;;;;;14.25;8.50;;;;;;;23.07;99.88;101327.44;5048770;28;20626;-61
2023/06/19 08:30:03;;;;;;;10.30;7.82;;;;;;;23.16;98.58;101332.06;5049601;28;20029;-61
2023/06/19 08:32:28;;;;;;;12.10;8.15;;;;;;;23.04;98.57;101350.03;5041203;28;20035;-61
2023/06/19 08:34:54;;;;;;;14.90;7.63;;;;;;;23.00;99.60;101350.41;5029874;28;20033;-60
2023/06/19 08:37:19;;;;;;;13.75;8.48;;;;;;;23.12;99.87;101341.38;5011582;28;20056;-60
2023/06/19 08:39:44;;;;;;;14.25;8.15;;;;;;;23.15;99.98;101351.84;5028856;28;20040;-60
2023/06/19 08:42:10;;;;;;;10.60;7.65;;;;;;;23.13;98.42;101339.50;5029155;28;20126;-67
2023/06/19 08:44:36;;;;;;;14.77;8.40;;;;;;;23.39;97.73;101352.72;5029896;28;20025;-63
2023/06/19 08:47:03;;;;;;;10.02;7.05;;;;;;;23.37;97.40;101347.47;5028620;28;20022;-63
2023/06/19 08:49:33;;;;;;;13.65;8.27;;;;;;;23.33;96.50;101346.00;5029753;28;20465;-63
2023/06/19 08:51:59;;;;;;;9.88;7.40;;;;;;;23.63;95.11;101351.72;5031212;28;20042;-64
2023/06/19 08:54:25;;;;;;;13.60;7.47;;;;;;;23.58;95.03;101346.72;5048657;28;20039;-65
2023/06/19 08:56:53;;;;;;;13.73;8.38;;;;;;;23.72;95.41;101334.81;5049436;28;20064;-64
2023/06/19 08:59:18;;;;;;;14.37;8.40;;;;;;;23.50;96.91;101343.81;5050258;28;20029;-66
2023/06/19 09:01:54;;;;;;;11.73;8.02;;;;;;;23.70;94.96;101344.84;5048901;28;20291;-63
2023/06/19 09:04:26;;;;;;;11.07;7.18;;;;;;;23.77;94.92;101342.50;5049506;28;20509;-61
2023/06/19 09:06:53;;;;;;;10.38;7.25;;;;;;;24.00;94.32;101350.50;5049027;28;20017;-63
2023/06/19 09:09:20;;;;;;;10.43;6.93;;;;;;;24.20;93.94;101351.56;5049767;28;20037;-65
2023/06/19 09:12:05;;;;;;;13.13;7.32;;;;;;;24.09;93.13;101357.81;5048835;28;20040;-64
2023/06/19 09:14:38;;;;;;;16.48;9.05;;;;;;;23.98;92.97;101364.94;5046130;28;20033;-69
2023/06/19 09:17:04;;;;;;;15.68;9.02;;;;;;;23.85;94.20;101370.50;5045945;28;20032;-66
2023/06/19 09:19:30;;;;;;;13.15;9.27;;;;;;;24.08;93.35;101366.88;5046051;28;20456;-70
2023/06/19 09:22:00;;;;;;;15.15;9.27;;;;;;;24.29;92.40;101371.47;5045909;28;20104;-62
2023/06/19 09:24:33;;;;;;;13.32;9.50;;;;;;;24.10;93.38;101375.66;5045135;28;20025;-61
2023/06/19 09:27:08;;;;;;;15.80;9.48;;;;;;;24.05;93.83;101381.41;5043716;28;20049;-61
2023/06/19 09:29:36;;;;;;;20.52;10.45;;;;;;;23.92;95.14;101383.41;5042528;28;20029;-61
2023/06/19 09:32:02;;;;;;;16.63;11.23;;;;;;;23.67;96.06;101389.00;5043952;28;20040;-61
2023/06/19 09:34:28;;;;;;;17.60;12.68;;;;;;;23.50;95.88;101393.03;5035425;28;20025;-61
2023/06/19 09:36:53;;;;;;;21.25;12.52;;;;;;;23.61;96.26;101394.88;5037852;28;20035;-60
2023/06/19 09:39:20;;;;;;;15.93;10.73;;;;;;;23.84;95.88;101394.84;5020026;28;20018;-62
2023/06/19 09:41:46;;;;;;;11.85;9.20;;;;;;;23.93;94.65;101401.31;5038042;28;20071;-61
2023/06/19 09:44:12;;;;;;;12.18;9.65;;;;;;;24.09;94.39;101404.44;5035256;28;20072;-64
2023/06/19 09:46:41;;;;;;;13.07;8.35;;;;;;;24.33;93.12;101405.22;5019702;28;20041;-61
2023/06/19 09:49:06;;;;;;;;;;;;;;;24.70;91.55;101406.63;5023006;28;20037;-62
2023/06/19 09:51:33;;;;;;;16.00;9.57;;;;;;;24.65;92.13;101404.31;5044963;28;20426;-62
2023/06/19 09:54:00;;;;;;;14.10;8.02;;;;;;;25.19;89.30;101401.53;5020138;28;20406;-61
2023/06/19 09:56:26;;;;;;;15.60;8.38;;;;;;;25.34;89.17;101409.25;5042319;28;20103;-61
2023/06/19 09:58:54;;;;;;;7.63;6.53;;;;;;;25.24;86.89;101412.78;5026568;28;20033;-62
2023/06/19 10:01:20;;;;;;;9.73;6.33;;;;;;;25.05;85.95;101418.06;5041010;28;20024;-62
2023/06/19 10:03:45;;;;;;;11.80;7.15;;;;;;;24.53;88.96;101421.53;5043635;28;20017;-61
2023/06/19 10:06:15;;;;;;;16.13;7.63;;;;;;;24.61;89.74;101416.34;5036141;28;20116;-62
2023/06/19 10:08:43;;;;;;;20.88;11.98;;;;;;;24.73;90.34;101418.00;5044470;28;20098;-62
2023/06/19 10:11:09;;;;;;;16.70;12.45;;;;;;;24.73;90.68;101423.38;5045319;28;20086;-61
2023/06/19 10:13:38;;;;;;;21.15;14.02;;;;;;;24.60;93.08;101414.66;5045016;28;20428;-62
2023/06/19 10:16:04;;;;;;;15.60;11.85;;;;;;;24.92;92.01;101413.72;5045214;28;20481;-63
2023/06/19 10:18:32;;;;;;;17.33;13.05;;;;;;;25.34;88.32;101412.81;5046154;28;20493;-62
2023/06/19 10:20:57;;;;;;;17.13;11.55;;;;;;;25.31;88.57;101420.34;5029143;28;20042;-62
2023/06/19 10:23:24;;;;;;;16.52;11.95;;;;;;;25.55;86.99;101419.13;5047606;28;20060;-62
2023/06/19 10:26:00;;;;;;;20.17;12.55;;;;;;;25.63;85.53;101416.63;5045709;28;20029;-61
2023/06/19 10:28:30;;;;;;;17.23;11.35;;;;;;;25.77;85.61;101412.69;5045122;28;20040;-60
2023/06/19 10:30:59;;;;;;;16.15;11.93;;;;;;;25.94;84.42;101418.38;5045515;28;20025;-62
2023/06/19 10:33:29;;;;;;;18.65;11.95;;;;;;;25.82;84.92;101423.06;5044984;28;20033;-62
2023/06/19 10:35:54;;;;;;;21.13;11.38;;;;;;;25.89;85.07;101416.13;5047816;28;20033;-62
2023/06/19 10:38:20;;;;;;;16.08;13.05;;;;;;;25.81;84.87;101427.63;5031926;28;20033;-62
2023/06/19 10:40:46;;;;;;;21.02;12.65;;;;;;;25.57;85.19;101419.84;5010649;28;20074;-61
2023/06/19 10:43:12;;;;;;;14.45;10.35;;;;;;;25.66;84.87;101418.19;5027657;28;20354;-61
2023/06/19 10:45:37;;;;;;;16.60;11.88;;;;;;;25.36;86.09;101420.75;5030173;28;20033;-61
2023/06/19 10:48:04;;;;;;;16.05;11.57;;;;;;;25.21;87.20;101425.66;5026928;28;20041;-63
2023/06/19 10:50:30;;;;;;;14.55;11.20;;;;;;;25.14;88.61;101419.09;5027596;28;20055;-61
2023/06/19 10:52:55;;;;;;;29.10;13.23;;;;;;;25.03;89.31;101423.59;5014181;28;20111;-62
2023/06/19 10:55:21;;;;;;;34.80;13.98;;;;;;;25.45;86.05;101416.41;5045093;28;20454;-64
2023/06/19 10:57:48;;;;;;;20.98;11.00;;;;;;;25.57;85.97;101415.31;5035090;28;20104;-61
2023/06/19 11:00:27;;;;;;;39.92;15.15;;;;;;;26.06;84.17;101413.72;5038164;28;20029;-61
2023/06/19 11:02:52;;;;;;;12.48;8.23;;;;;;;26.35;82.69;101404.81;5037972;28;20025;-63
2023/06/19 11:05:21;;;;;;;20.80;8.90;;;;;;;26.47;81.59;101405.50;5030248;28;20124;-62
2023/06/19 11:07:59;;;;;;;19.70;8.57;;;;;;;26.86;80.35;101404.59;5038694;28;20477;-61